createdAt,value
2023-03-15T00:00:39.844Z,37.77
2023-03-15T00:03:06.180Z,37.77
2023-03-15T00:05:32.613Z,37.76
2023-03-15T00:07:58.978Z,37.67
2023-03-15T00:10:25.304Z,37.80
2023-03-15T00:12:51.626Z,37.53
2023-03-15T00:15:18.022Z,37.67
2023-03-15T00:17:44.365Z,37.61
2023-03-15T00:20:10.691Z,37.58
2023-03-15T00:22:37.096Z,37.61
2023-03-15T00:25:03.506Z,37.38
2023-03-15T00:27:29.858Z,37.71
2023-03-15T00:29:56.287Z,37.65
2023-03-15T00:32:22.748Z,37.64
2023-03-15T00:34:49.164Z,37.28
2023-03-15T00:37:15.534Z,37.22
2023-03-15T00:39:42.412Z,37.12
2023-03-15T00:42:08.766Z,37.20
2023-03-15T00:44:35.171Z,36.83
2023-03-15T00:47:01.626Z,36.96
2023-03-15T00:49:27.966Z,36.76
2023-03-15T00:51:54.336Z,36.89
2023-03-15T00:54:20.656Z,36.74
2023-03-15T00:56:47.322Z,36.63
2023-03-15T00:59:13.723Z,36.87
2023-03-15T01:01:40.104Z,36.84
2023-03-15T01:04:06.466Z,36.50
2023-03-15T01:06:32.913Z,36.46
2023-03-15T01:08:59.798Z,36.54
2023-03-15T01:11:26.150Z,36.61
2023-03-15T01:13:52.522Z,36.45
2023-03-15T01:16:18.970Z,36.69
2023-03-15T01:18:45.381Z,36.39
2023-03-15T01:21:11.754Z,36.39
2023-03-15T01:23:38.084Z,36.44
2023-03-15T01:26:04.648Z,36.40
2023-03-15T01:28:31.216Z,36.26
2023-03-15T01:30:59.765Z,36.30
2023-03-15T01:33:26.450Z,36.21
2023-03-15T01:35:53.058Z,36.39
2023-03-15T01:38:19.604Z,36.44
2023-03-15T01:40:45.981Z,36.37
2023-03-15T01:43:13.911Z,36.54
2023-03-15T01:45:40.480Z,36.29
2023-03-15T01:48:06.919Z,36.57
2023-03-15T01:50:33.280Z,36.59
2023-03-15T01:52:59.608Z,36.46
2023-03-15T01:55:25.997Z,36.37
2023-03-15T01:58:00.047Z,36.32
2023-03-15T02:00:28.782Z,36.36
2023-03-15T02:02:59.262Z,36.22
2023-03-15T02:05:28.242Z,36.40
2023-03-15T02:07:54.765Z,36.61
2023-03-15T02:10:22.429Z,36.52
2023-03-15T02:12:53.174Z,36.51
2023-03-15T02:15:19.581Z,36.54
2023-03-15T02:17:45.947Z,36.42
2023-03-15T02:20:12.389Z,36.31
2023-03-15T02:22:41.407Z,36.45
2023-03-15T02:25:07.739Z,36.39
2023-03-15T02:27:34.138Z,36.65
2023-03-15T02:30:00.500Z,36.42
2023-03-15T02:32:26.861Z,36.65
2023-03-15T02:34:53.260Z,36.75
2023-03-15T02:37:19.589Z,36.80
2023-03-15T02:39:45.954Z,36.69
2023-03-15T02:42:12.326Z,36.73
2023-03-15T02:44:38.655Z,36.78
2023-03-15T02:47:05.338Z,36.81
2023-03-15T02:49:31.824Z,36.61
2023-03-15T02:51:58.198Z,36.82
2023-03-15T02:54:24.562Z,36.66
2023-03-15T02:56:51.835Z,36.78
2023-03-15T02:59:18.158Z,36.72
2023-03-15T03:01:44.586Z,36.73
2023-03-15T03:04:11.837Z,36.75
2023-03-15T03:06:38.216Z,36.95
2023-03-15T03:09:05.920Z,36.65
2023-03-15T03:11:32.479Z,36.52
2023-03-15T03:13:58.845Z,36.53
2023-03-15T03:16:25.277Z,36.24
2023-03-15T03:18:51.769Z,36.04
2023-03-15T03:21:18.191Z,36.19
2023-03-15T03:23:44.516Z,35.70
2023-03-15T03:26:10.905Z,35.65
2023-03-15T03:28:37.235Z,35.74
2023-03-15T03:31:04.434Z,35.59
2023-03-15T03:33:31.590Z,35.43
2023-03-15T03:35:57.973Z,35.21
2023-03-15T03:38:24.360Z,35.16
2023-03-15T03:40:55.226Z,35.21
2023-03-15T03:43:21.678Z,34.92
2023-03-15T03:45:48.156Z,34.73
2023-03-15T03:48:16.197Z,34.82
2023-03-15T03:50:42.521Z,34.81
2023-03-15T03:53:08.832Z,34.74
2023-03-15T03:55:35.370Z,34.75
2023-03-15T03:58:01.679Z,34.63
2023-03-15T04:00:37.685Z,34.80
2023-03-15T04:03:06.020Z,34.98
2023-03-15T04:05:34.850Z,34.65
2023-03-15T04:08:01.317Z,34.61
2023-03-15T04:10:32.182Z,34.84
2023-03-15T04:12:58.562Z,34.64
2023-03-15T04:15:25.035Z,34.87
2023-03-15T04:17:51.517Z,34.66
2023-03-15T04:20:17.986Z,34.57
2023-03-15T04:22:45.040Z,34.69
2023-03-15T04:25:28.443Z,34.52
2023-03-15T04:28:24.110Z,34.42
2023-03-15T04:31:09.413Z,34.60
2023-03-15T04:33:56.306Z,34.48
2023-03-15T04:36:36.413Z,34.57
2023-03-15T04:39:21.500Z,34.31
2023-03-15T04:42:06.799Z,34.40
2023-03-15T04:44:46.728Z,34.32
2023-03-15T04:47:27.205Z,34.28
2023-03-15T04:50:12.416Z,34.21
2023-03-15T04:53:13.973Z,34.31
2023-03-15T04:56:04.829Z,34.57
2023-03-15T04:58:41.796Z,34.55
2023-03-15T05:01:36.091Z,34.64
2023-03-15T05:04:20.094Z,34.27
2023-03-15T05:07:13.073Z,34.97
2023-03-15T05:09:54.566Z,34.76
2023-03-15T05:12:37.632Z,34.73
2023-03-15T05:15:19.152Z,34.30
2023-03-15T05:17:51.647Z,34.03
2023-03-15T05:20:36.652Z,34.42
2023-03-15T05:23:23.462Z,34.21
2023-03-15T05:25:49.963Z,34.32
2023-03-15T05:28:36.811Z,34.30
2023-03-15T05:31:26.543Z,34.20
2023-03-15T05:34:11.889Z,34.28
2023-03-15T05:36:56.795Z,34.38
2023-03-15T05:39:26.397Z,34.14
2023-03-15T05:42:09.395Z,34.39
2023-03-15T05:44:54.785Z,34.58
2023-03-15T05:47:41.437Z,34.43
2023-03-15T05:50:28.198Z,34.71
2023-03-15T05:53:14.859Z,33.77
2023-03-15T05:56:16.786Z,33.68
2023-03-15T05:59:12.033Z,33.55
2023-03-15T06:02:03.131Z,32.99
2023-03-15T06:04:37.189Z,32.96
2023-03-15T06:07:04.935Z,31.39
2023-03-15T06:09:32.926Z,31.96
2023-03-15T06:11:59.500Z,31.92
2023-03-15T06:14:26.231Z,31.89
2023-03-15T06:16:56.212Z,31.81
2023-03-15T06:19:23.776Z,31.47
2023-03-15T06:21:52.617Z,30.24
2023-03-15T06:24:35.183Z,30.66
2023-03-15T06:27:02.044Z,31.18
2023-03-15T06:29:28.584Z,28.92
2023-03-15T06:31:56.852Z,30.52
2023-03-15T06:34:24.687Z,30.95
2023-03-15T06:36:51.184Z,31.26
2023-03-15T06:39:17.593Z,30.94
2023-03-15T06:41:44.143Z,30.49
2023-03-15T06:44:18.354Z,30.26
2023-03-15T06:46:46.258Z,30.42
2023-03-15T06:49:12.864Z,30.47
2023-03-15T06:51:39.316Z,30.00
2023-03-15T06:54:05.866Z,30.05
2023-03-15T06:56:34.401Z,29.67
2023-03-15T06:59:00.942Z,29.24
2023-03-15T07:01:27.521Z,29.56
2023-03-15T07:03:53.901Z,29.16
2023-03-15T07:06:20.511Z,29.44
2023-03-15T07:08:46.933Z,29.12
2023-03-15T07:11:13.392Z,28.91
2023-03-15T07:13:39.731Z,28.88
2023-03-15T07:16:06.163Z,28.93
2023-03-15T07:18:32.529Z,28.83
2023-03-15T07:20:58.860Z,28.74
2023-03-15T07:23:25.326Z,28.77
2023-03-15T07:25:55.088Z,26.40
2023-03-15T07:28:21.914Z,28.05
2023-03-15T07:30:48.373Z,28.41
2023-03-15T07:33:14.802Z,25.94
2023-03-15T07:35:41.263Z,27.58
2023-03-15T07:38:07.754Z,27.62
2023-03-15T07:40:34.340Z,27.61
2023-03-15T07:43:00.769Z,27.64
2023-03-15T07:45:27.235Z,27.44
2023-03-15T07:47:56.204Z,27.68
2023-03-15T07:50:22.947Z,27.30
2023-03-15T07:52:49.383Z,26.99
2023-03-15T07:55:15.772Z,27.46
2023-03-15T07:57:42.175Z,26.26
2023-03-15T08:00:08.669Z,27.21
2023-03-15T08:02:38.426Z,27.20
2023-03-15T08:05:04.922Z,26.97
2023-03-15T08:07:31.295Z,26.92
2023-03-15T08:09:57.714Z,26.95
2023-03-15T08:12:24.080Z,27.19
2023-03-15T08:14:50.486Z,26.94
2023-03-15T08:17:16.910Z,26.83
2023-03-15T08:19:43.298Z,26.85
2023-03-15T08:22:09.773Z,26.71
2023-03-15T08:24:36.139Z,26.73
2023-03-15T08:27:02.477Z,26.74
2023-03-15T08:29:28.881Z,26.70
2023-03-15T08:31:55.268Z,26.68
2023-03-15T08:34:21.698Z,26.68
2023-03-15T08:36:48.253Z,26.64
2023-03-15T08:39:14.621Z,26.20
2023-03-15T08:41:40.986Z,26.52
2023-03-15T08:44:07.410Z,26.20
2023-03-15T08:46:33.836Z,26.36
2023-03-15T08:49:00.206Z,26.11
2023-03-15T08:51:26.649Z,25.98
2023-03-15T08:53:53.022Z,26.09
2023-03-15T08:56:19.458Z,26.08
2023-03-15T08:58:45.892Z,25.94
2023-03-15T09:01:12.245Z,25.71
2023-03-15T09:03:38.618Z,25.71
2023-03-15T09:06:05.055Z,25.61
2023-03-15T09:08:31.467Z,25.74
2023-03-15T09:10:57.890Z,25.45
2023-03-15T09:13:24.372Z,25.43
2023-03-15T09:15:50.736Z,25.30
2023-03-15T09:18:17.103Z,25.27
2023-03-15T09:20:43.547Z,23.02
2023-03-15T09:23:09.945Z,22.87
2023-03-15T09:25:36.316Z,24.11
2023-03-15T09:28:02.779Z,25.60
2023-03-15T09:30:29.127Z,26.06
2023-03-15T09:32:55.600Z,26.00
2023-03-15T09:35:22.056Z,25.77
2023-03-15T09:37:48.434Z,26.28
2023-03-15T09:40:14.791Z,26.16
2023-03-15T09:42:41.232Z,25.80
2023-03-15T09:45:07.584Z,25.80
2023-03-15T09:47:34.049Z,25.65
2023-03-15T09:50:00.458Z,25.35
2023-03-15T09:52:26.816Z,25.26
2023-03-15T09:54:53.148Z,25.11
2023-03-15T09:57:19.616Z,25.12
2023-03-15T09:59:45.990Z,24.33
2023-03-15T10:02:12.304Z,24.87
2023-03-15T10:04:38.796Z,24.56
2023-03-15T10:07:05.171Z,24.49
2023-03-15T10:09:31.569Z,24.40
2023-03-15T10:11:57.994Z,24.18
2023-03-15T10:14:24.354Z,24.03
2023-03-15T10:16:50.743Z,23.92
2023-03-15T10:19:17.182Z,24.06
2023-03-15T10:21:43.578Z,23.80
2023-03-15T10:24:09.949Z,23.67
2023-03-15T10:26:36.360Z,23.63
2023-03-15T10:29:02.707Z,23.48
2023-03-15T10:31:41.414Z,23.35
2023-03-15T10:34:10.743Z,23.14
2023-03-15T10:36:37.139Z,23.00
2023-03-15T10:39:03.527Z,23.13
2023-03-15T10:41:29.990Z,23.23
2023-03-15T10:43:56.422Z,23.45
2023-03-15T10:46:22.816Z,23.06
2023-03-15T10:48:49.330Z,23.18
2023-03-15T10:51:15.758Z,22.98
2023-03-15T10:53:42.132Z,22.92
2023-03-15T10:56:08.603Z,22.80
2023-03-15T10:58:34.986Z,22.66
2023-03-15T11:01:01.452Z,22.68
2023-03-15T11:03:27.890Z,22.60
2023-03-15T11:05:54.297Z,22.72
2023-03-15T11:08:20.693Z,22.59
2023-03-15T11:10:47.072Z,22.55
2023-03-15T11:13:13.473Z,22.61
2023-03-15T11:15:39.874Z,22.49
2023-03-15T11:18:07.944Z,22.59
2023-03-15T11:20:35.463Z,22.32
2023-03-15T11:23:01.828Z,22.41
2023-03-15T11:25:28.228Z,22.36
2023-03-15T11:27:54.613Z,22.23
2023-03-15T11:30:20.993Z,22.37
2023-03-15T11:32:47.477Z,22.40
2023-03-15T11:35:13.962Z,22.14
2023-03-15T11:37:40.342Z,22.21
2023-03-15T11:40:11.769Z,20.71
2023-03-15T11:42:38.954Z,21.93
2023-03-15T11:45:05.316Z,22.63
2023-03-15T11:47:31.863Z,22.56
2023-03-15T11:49:58.205Z,22.54
2023-03-15T11:52:24.561Z,22.26
2023-03-15T11:54:51.098Z,22.04
2023-03-15T11:57:17.460Z,22.52
2023-03-15T11:59:43.897Z,22.23
2023-03-15T12:02:10.506Z,22.34
2023-03-15T12:04:37.015Z,22.22
2023-03-15T12:07:03.356Z,22.10
2023-03-15T12:09:29.774Z,21.86
2023-03-15T12:11:56.172Z,22.00
2023-03-15T12:14:22.540Z,22.15
2023-03-15T12:16:48.975Z,22.09
2023-03-15T12:19:15.365Z,21.97
2023-03-15T12:21:41.726Z,22.10
2023-03-15T12:24:08.141Z,22.22
2023-03-15T12:26:34.501Z,22.16
2023-03-15T12:29:00.859Z,22.22
2023-03-15T12:31:27.271Z,22.09
2023-03-15T12:33:53.646Z,21.95
2023-03-15T12:36:20.059Z,22.09
2023-03-15T12:38:46.492Z,22.07
2023-03-15T12:41:12.879Z,21.94
2023-03-15T12:43:39.241Z,22.02
2023-03-15T12:46:05.683Z,21.93
2023-03-15T12:48:32.083Z,21.68
2023-03-15T12:50:58.697Z,21.57
2023-03-15T12:53:25.166Z,21.37
2023-03-15T12:55:54.052Z,21.70
2023-03-15T12:58:25.813Z,21.43
2023-03-15T13:00:52.195Z,21.42
2023-03-15T13:03:18.627Z,21.49
2023-03-15T13:05:47.083Z,21.50
2023-03-15T13:08:15.600Z,21.74
2023-03-15T13:10:41.991Z,21.82
2023-03-15T13:13:08.368Z,22.02
2023-03-15T13:15:34.827Z,22.07
2023-03-15T13:18:01.286Z,21.79
2023-03-15T13:20:27.717Z,21.94
2023-03-15T13:22:56.000Z,21.92
2023-03-15T13:25:22.739Z,22.33
2023-03-15T13:27:49.150Z,22.47
2023-03-15T13:30:15.546Z,22.09
2023-03-15T13:32:41.953Z,22.15
2023-03-15T13:35:08.379Z,22.06
2023-03-15T13:37:34.749Z,21.89
2023-03-15T13:40:01.105Z,22.03
2023-03-15T13:42:27.532Z,21.93
2023-03-15T13:44:53.911Z,21.80
2023-03-15T13:47:20.273Z,21.82
2023-03-15T13:49:46.760Z,21.81
2023-03-15T13:52:13.146Z,21.83
2023-03-15T13:54:39.536Z,21.88
2023-03-15T13:57:05.976Z,21.73
2023-03-15T13:59:32.351Z,21.76
2023-03-15T14:01:58.792Z,21.92
2023-03-15T14:04:25.234Z,21.86
2023-03-15T14:06:51.615Z,21.89
2023-03-15T14:09:17.982Z,22.01
2023-03-15T14:11:44.425Z,21.76
2023-03-15T14:14:10.802Z,21.84
2023-03-15T14:16:42.807Z,22.11
2023-03-15T14:19:17.050Z,21.88
2023-03-15T14:21:43.397Z,22.09
2023-03-15T14:24:10.087Z,22.18
2023-03-15T14:26:36.636Z,21.94
2023-03-15T14:29:03.161Z,22.14
2023-03-15T14:31:29.714Z,21.98
2023-03-15T14:33:56.272Z,22.29
2023-03-15T14:36:22.795Z,22.18
2023-03-15T14:38:49.258Z,22.31
2023-03-15T14:41:15.676Z,22.25
2023-03-15T14:43:42.093Z,22.39
2023-03-15T14:46:08.598Z,22.43
2023-03-15T14:48:35.148Z,22.26
2023-03-15T14:51:01.881Z,22.38
2023-03-15T14:53:28.480Z,22.23
2023-03-15T14:55:54.929Z,22.23
2023-03-15T14:58:21.372Z,22.50
2023-03-15T15:00:47.882Z,22.45
2023-03-15T15:03:14.492Z,22.41
2023-03-15T15:05:40.984Z,22.33
2023-03-15T15:08:07.799Z,22.43
2023-03-15T15:10:34.315Z,22.57
2023-03-15T15:13:06.377Z,22.60
2023-03-15T15:15:40.776Z,22.68
2023-03-15T15:18:14.225Z,22.78
2023-03-15T15:20:40.595Z,22.93
2023-03-15T15:23:06.930Z,22.82
2023-03-15T15:25:33.382Z,22.96
2023-03-15T15:27:59.896Z,22.83
2023-03-15T15:30:26.403Z,22.71
2023-03-15T15:32:53.103Z,23.14
2023-03-15T15:35:19.564Z,23.16
2023-03-15T15:37:46.004Z,23.22
2023-03-15T15:40:12.524Z,23.03
2023-03-15T15:42:38.891Z,22.98
2023-03-15T15:45:05.264Z,23.29
2023-03-15T15:47:31.817Z,23.19
2023-03-15T15:49:58.415Z,23.59
2023-03-15T15:52:24.930Z,23.37
2023-03-15T15:54:51.445Z,23.62
2023-03-15T15:57:17.894Z,23.62
2023-03-15T15:59:44.345Z,23.48
2023-03-15T16:02:11.066Z,23.59
2023-03-15T16:04:37.470Z,23.79
2023-03-15T16:07:04.099Z,23.73
2023-03-15T16:09:30.654Z,23.67
2023-03-15T16:11:57.074Z,23.85
2023-03-15T16:14:23.512Z,23.74
2023-03-15T16:16:50.003Z,23.99
2023-03-15T16:19:16.415Z,24.17
2023-03-15T16:21:42.852Z,23.93
2023-03-15T16:24:09.442Z,24.15
2023-03-15T16:26:35.926Z,23.82
2023-03-15T16:29:02.530Z,23.73
2023-03-15T16:31:29.254Z,23.92
2023-03-15T16:33:55.707Z,24.11
2023-03-15T16:36:22.158Z,24.04
2023-03-15T16:38:48.653Z,23.95
2023-03-15T16:41:15.105Z,24.35
2023-03-15T16:43:41.484Z,24.01
2023-03-15T16:46:08.101Z,24.23
2023-03-15T16:48:34.499Z,24.27
2023-03-15T16:51:01.074Z,24.23
2023-03-15T16:53:27.690Z,24.03
2023-03-15T16:55:54.105Z,24.16
2023-03-15T16:58:20.554Z,24.36
2023-03-15T17:00:47.022Z,24.63
2023-03-15T17:03:13.779Z,24.14
2023-03-15T17:05:40.234Z,24.41
2023-03-15T17:08:06.664Z,24.66
2023-03-15T17:10:33.043Z,24.46
2023-03-15T17:13:00.717Z,24.51
2023-03-15T17:15:27.201Z,24.85
2023-03-15T17:17:53.608Z,24.91
2023-03-15T17:20:20.035Z,24.60
2023-03-15T17:22:46.602Z,24.93
2023-03-15T17:25:12.992Z,25.04
2023-03-15T17:27:39.487Z,25.03
2023-03-15T17:30:06.007Z,24.86
2023-03-15T17:32:32.522Z,25.13
2023-03-15T17:34:59.171Z,25.32
2023-03-15T17:37:25.636Z,25.22
2023-03-15T17:39:52.000Z,25.32
2023-03-15T17:42:18.477Z,25.35
2023-03-15T17:44:45.026Z,25.50
2023-03-15T17:47:11.547Z,25.44
2023-03-15T17:49:38.066Z,25.61
2023-03-15T17:52:04.663Z,25.48
2023-03-15T17:54:31.125Z,25.60
2023-03-15T17:56:57.564Z,25.52
2023-03-15T17:59:24.024Z,25.83
2023-03-15T18:01:50.484Z,25.63
2023-03-15T18:04:17.006Z,25.61
2023-03-15T18:06:43.580Z,25.81
2023-03-15T18:09:09.973Z,25.65
2023-03-15T18:11:36.377Z,25.78
2023-03-15T18:14:02.845Z,26.10
2023-03-15T18:16:29.368Z,25.72
2023-03-15T18:18:55.852Z,25.92
2023-03-15T18:21:22.306Z,25.79
2023-03-15T18:23:48.695Z,26.16
2023-03-15T18:26:15.101Z,26.21
2023-03-15T18:28:41.615Z,26.38
2023-03-15T18:31:08.057Z,26.21
2023-03-15T18:33:34.410Z,26.49
2023-03-15T18:36:00.863Z,26.51
2023-03-15T18:38:27.365Z,26.53
2023-03-15T18:40:53.763Z,26.56
2023-03-15T18:43:20.181Z,26.67
2023-03-15T18:45:46.721Z,26.56
2023-03-15T18:48:13.187Z,26.75
2023-03-15T18:50:39.690Z,26.75
2023-03-15T18:53:06.564Z,27.16
2023-03-15T18:55:33.039Z,26.85
2023-03-15T18:57:59.789Z,27.04
2023-03-15T19:00:26.251Z,27.29
2023-03-15T19:02:52.688Z,27.10
2023-03-15T19:05:19.116Z,27.33
2023-03-15T19:07:47.625Z,27.22
2023-03-15T19:10:14.225Z,27.03
2023-03-15T19:12:40.707Z,27.09
2023-03-15T19:15:07.086Z,26.99
2023-03-15T19:17:33.615Z,27.09
2023-03-15T19:20:00.197Z,27.23
2023-03-15T19:22:26.668Z,27.25
2023-03-15T19:24:53.119Z,27.30
2023-03-15T19:27:19.560Z,27.44
2023-03-15T19:29:45.881Z,27.41
2023-03-15T19:32:12.319Z,27.53
2023-03-15T19:34:38.858Z,27.45
2023-03-15T19:37:05.473Z,27.50
2023-03-15T19:39:32.003Z,27.47
2023-03-15T19:41:58.600Z,27.67
2023-03-15T19:44:24.992Z,27.76
2023-03-15T19:46:51.381Z,28.00
2023-03-15T19:49:17.759Z,27.72
2023-03-15T19:51:44.219Z,27.99
2023-03-15T19:54:10.779Z,27.86
2023-03-15T19:56:37.364Z,27.88
2023-03-15T19:59:03.875Z,28.08
2023-03-15T20:01:30.379Z,28.00
2023-03-15T20:03:56.948Z,27.97
2023-03-15T20:06:23.408Z,28.09
2023-03-15T20:08:49.772Z,28.29
2023-03-15T20:11:16.254Z,28.30
2023-03-15T20:13:42.828Z,28.15
2023-03-15T20:16:09.308Z,28.30
2023-03-15T20:18:35.814Z,28.25
2023-03-15T20:21:02.273Z,28.46
2023-03-15T20:23:28.675Z,28.46
2023-03-15T20:25:55.168Z,28.71
2023-03-15T20:28:21.595Z,28.50
2023-03-15T20:30:48.078Z,28.79
2023-03-15T20:33:14.674Z,28.66
2023-03-15T20:35:41.143Z,28.87
2023-03-15T20:38:07.536Z,28.74
2023-03-15T20:40:33.964Z,28.94
2023-03-15T20:43:00.339Z,29.01
2023-03-15T20:45:26.791Z,28.94
2023-03-15T20:47:53.324Z,29.06
2023-03-15T20:50:19.991Z,29.27
2023-03-15T20:52:46.627Z,29.01
2023-03-15T20:55:13.092Z,29.25
2023-03-15T20:57:39.483Z,29.06
2023-03-15T21:00:05.946Z,29.54
2023-03-15T21:02:32.455Z,29.16
2023-03-15T21:04:58.892Z,29.27
2023-03-15T21:07:25.338Z,29.29
2023-03-15T21:09:51.758Z,29.68
2023-03-15T21:12:18.211Z,29.61
2023-03-15T21:14:44.699Z,29.43
2023-03-15T21:17:11.156Z,29.75
2023-03-15T21:19:37.650Z,29.79
2023-03-15T21:22:04.252Z,29.60
2023-03-15T21:24:30.771Z,29.75
2023-03-15T21:26:57.254Z,30.11
2023-03-15T21:29:23.655Z,30.11
2023-03-15T21:31:50.304Z,30.17
2023-03-15T21:34:16.832Z,30.08
2023-03-15T21:36:43.391Z,30.07
2023-03-15T21:39:09.896Z,30.29
2023-03-15T21:41:36.292Z,30.11
2023-03-15T21:44:02.637Z,30.23
2023-03-15T21:46:29.175Z,30.21
2023-03-15T21:48:55.651Z,30.38
2023-03-15T21:51:22.146Z,30.39
2023-03-15T21:53:48.634Z,30.45
2023-03-15T21:56:15.144Z,30.54
2023-03-15T21:58:41.532Z,30.52
2023-03-15T22:01:08.154Z,30.76
2023-03-15T22:03:34.600Z,30.70
2023-03-15T22:06:01.141Z,30.92
2023-03-15T22:08:27.633Z,30.68
2023-03-15T22:10:54.122Z,30.94
2023-03-15T22:13:20.538Z,30.96
2023-03-15T22:15:46.945Z,30.92
2023-03-15T22:18:13.261Z,30.97
2023-03-15T22:20:39.696Z,31.02
2023-03-15T22:23:06.160Z,30.93
2023-03-15T22:25:32.604Z,31.13
2023-03-15T22:27:59.163Z,31.33
2023-03-15T22:30:25.955Z,31.17
2023-03-15T22:32:52.779Z,31.12
2023-03-15T22:35:19.243Z,31.05
2023-03-15T22:37:45.809Z,31.40
2023-03-15T22:40:12.293Z,31.58
2023-03-15T22:42:38.779Z,31.54
2023-03-15T22:45:05.308Z,31.51
2023-03-15T22:47:31.800Z,31.62
2023-03-15T22:49:58.320Z,31.59
2023-03-15T22:52:24.758Z,31.69
2023-03-15T22:54:51.173Z,31.80
2023-03-15T22:57:17.577Z,31.46
2023-03-15T22:59:43.989Z,31.66
2023-03-15T23:02:10.338Z,31.48
2023-03-15T23:04:36.902Z,31.59
2023-03-15T23:07:03.615Z,31.47
2023-03-15T23:09:30.112Z,31.39
2023-03-15T23:11:56.554Z,31.52
2023-03-15T23:14:23.055Z,31.73
2023-03-15T23:16:49.523Z,31.57
2023-03-15T23:19:16.057Z,31.67
2023-03-15T23:21:42.644Z,31.81
2023-03-15T23:24:09.097Z,31.84
2023-03-15T23:26:35.596Z,31.78
2023-03-15T23:29:02.023Z,32.10
2023-03-15T23:31:28.478Z,31.74
2023-03-15T23:33:54.937Z,32.06
2023-03-15T23:36:21.489Z,32.05
2023-03-15T23:38:47.911Z,32.11
2023-03-15T23:41:14.272Z,32.17
2023-03-15T23:43:40.849Z,32.20
2023-03-15T23:46:07.393Z,32.30
2023-03-15T23:48:33.809Z,32.25
2023-03-15T23:51:00.218Z,32.17
2023-03-15T23:53:26.672Z,32.26
2023-03-15T23:55:53.133Z,32.35
2023-03-15T23:58:19.676Z,32.40
